Time;durP1;ratioP1;P1;durP2;ratioP2;P2;SDS_P1;SDS_P2;PMS_P1;PMS_P2;Temp;Humidity;BMP_temperature;BMP_pressure;BME280_temperature;BME280_humidity;BME280_pressure;Samples;Min_cycle;Max_cycle;Signal;HPM_P1;HPM_P2
2022/12/02 00:00:54;;;;;;;;;;;;;;;5.39;100.00;100186.81;6244356;23;19920;-86
2022/12/02 00:03:20;;;;;;;;;;;;;;;5.39;100.00;100181.56;6245713;22;19946;-86
2022/12/02 00:05:47;;;;;;;;;;;;;;;5.42;100.00;100172.75;6244403;23;19935;-86
2022/12/02 00:08:15;;;;;;;;;;;;;;;5.42;100.00;100184.13;6244180;23;20243;-86
2022/12/02 00:10:42;;;;;;;;;;;;;;;5.40;100.00;100180.66;6242839;23;19991;-87
2022/12/02 00:13:18;;;;;;;;;;;;;;;5.43;100.00;100174.50;6244238;23;19911;-86
2022/12/02 00:15:44;;;;;;;;;;;;;;;5.38;100.00;100177.19;6244195;23;19916;-86
2022/12/02 00:18:10;;;;;;;;;;;;;;;5.41;100.00;100178.91;6243935;23;19922;-86
2022/12/02 00:20:38;;;;;;;;;;;;;;;5.41;100.00;100168.41;6244713;23;19911;-87
2022/12/02 00:23:06;;;;;;;;;;;;;;;5.40;100.00;100169.28;6244307;23;19916;-87
2022/12/02 00:25:34;;;;;;;;;;;;;;;5.41;100.00;100165.78;6243980;22;19912;-87
2022/12/02 00:27:59;;;;;;;;;;;;;;;5.43;100.00;100166.59;6243696;23;19911;-87
2022/12/02 00:30:29;;;;;;;;;;;;;;;5.44;100.00;100168.31;6245471;22;19961;-86
2022/12/02 00:32:54;;;;;;;;;;;;;;;5.43;100.00;100159.59;6244182;23;19990;-87
2022/12/02 00:35:21;;;;;;;;;;;;;;;5.43;100.00;100161.34;6245698;23;19939;-87
2022/12/02 00:37:46;;;;;;;;;;;;;;;5.45;100.00;100154.31;6244082;22;19912;-85
2022/12/02 00:40:12;;;;;;;;;;;;;;;5.42;100.00;100154.34;6243025;22;19968;-85
2022/12/02 00:42:37;;;;;;;;;;;;;;;5.43;100.00;100145.59;6268189;22;19986;-86
2022/12/02 00:47:47;;;;;;;;;;;;;;;5.42;100.00;100136.81;6244997;23;19919;-85
2022/12/02 00:50:12;;;;;;;;;;;;;;;5.42;100.00;100141.22;6244628;22;19911;-85
2022/12/02 00:52:38;;;;;;;;;;;;;;;5.42;100.00;100134.19;6245467;23;19911;-86
2022/12/02 00:55:03;;;;;;;;;;;;;;;5.44;100.00;100134.16;6243492;23;19915;-86
2022/12/02 00:57:28;;;;;;;;;;;;;;;5.41;100.00;100131.59;6245510;22;19912;-86
2022/12/02 00:59:56;;;;;;;;;;;;;;;5.42;100.00;100126.28;6268918;22;19919;-85
2022/12/02 01:02:21;;;;;;;;;;;;;;;5.42;100.00;100128.06;6242884;22;19921;-86
2022/12/02 01:04:46;;;;;;;;;;;;;;;5.45;100.00;100130.66;6242229;23;19998;-86
2022/12/02 01:07:13;;;;;;;;;;;;;;;5.47;100.00;100123.59;6243729;23;19915;-86
2022/12/02 01:09:39;;;;;;;;;;;;;;;5.50;100.00;100130.56;6242333;22;19927;-85
2022/12/02 01:12:04;;;;;;;;;;;;;;;5.48;100.00;100120.09;6244268;23;20341;-86
2022/12/02 01:14:29;;;;;;;;;;;;;;;5.49;100.00;100120.94;6244154;23;19972;-86
2022/12/02 01:16:54;;;;;;;;;;;;;;;5.50;100.00;100123.53;6246116;22;20409;-86
2022/12/02 01:19:20;;;;;;;;;;;;;;;5.54;100.00;100125.25;6244311;23;20014;-86
2022/12/02 01:21:45;;;;;;;;;;;;;;;5.50;100.00;100123.53;6244278;23;20316;-86
2022/12/02 01:24:10;;;;;;;;;;;;;;;5.55;100.00;100131.34;6244598;23;19994;-86
2022/12/02 01:26:35;;;;;;;;;;;;;;;5.51;100.00;100134.94;6245991;23;20323;-85
2022/12/02 01:29:01;;;;;;;;;;;;;;;5.51;100.00;100130.56;6270124;22;19919;-85
2022/12/02 01:31:26;;;;;;;;;;;;;;;5.56;100.00;100127.84;6245889;23;19911;-86
2022/12/02 01:33:51;;;;;;;;;;;;;;;5.55;100.00;100124.38;6245995;23;19919;-86
2022/12/02 03:22:43;;;;;;;;;;;;;;;5.63;100.00;100087.41;6330785;22;19946;-86
2022/12/02 03:25:09;;;;;;;;;;;;;;;5.66;100.00;100081.22;6340445;22;20326;-84
2022/12/02 03:27:35;;;;;;;;;;;;;;;5.66;100.00;100086.50;6339890;22;20272;-83
2022/12/02 03:30:00;;;;;;;;;;;;;;;5.66;100.00;100082.09;6340124;22;19950;-83
2022/12/02 03:32:25;;;;;;;;;;;;;;;5.69;100.00;100082.03;6338742;22;19934;-85
2022/12/02 03:34:51;;;;;;;;;;;;;;;5.69;100.00;100082.03;6340306;22;19911;-84
2022/12/02 03:37:16;;;;;;;;;;;;;;;5.66;100.00;100073.34;6338216;22;19911;-83
2022/12/02 03:39:42;;;;;;;;;;;;;;;5.69;100.00;100071.53;6339787;22;19911;-86
2022/12/02 03:42:07;;;;;;;;;;;;;;;5.68;100.00;100071.53;6339853;22;19985;-84
2022/12/02 03:44:32;;;;;;;;;;;;;;;5.66;100.00;100066.31;6340169;22;20039;-83
2022/12/02 03:46:58;;;;;;;;;;;;;;;5.68;100.00;100072.44;6339804;22;19914;-85
2022/12/02 03:49:23;;;;;;;;;;;;;;;5.67;100.00;100072.47;6340168;22;19918;-83
2022/12/02 03:51:49;;;;;;;;;;;;;;;5.70;100.00;100072.41;6338086;22;19918;-82
2022/12/02 03:54:15;;;;;;;;;;;;;;;5.67;100.00;100077.72;6340075;22;19911;-83
2022/12/02 03:56:40;;;;;;;;;;;;;;;5.69;100.00;100073.28;6339449;22;19915;-83
2022/12/02 03:59:06;;;;;;;;;;;;;;;5.67;100.00;100073.31;6339799;22;19911;-83
2022/12/02 04:01:31;;;;;;;;;;;;;;;5.70;100.00;100069.78;6339471;22;20242;-82
2022/12/02 04:03:57;;;;;;;;;;;;;;;5.69;100.00;100062.78;6339703;22;19969;-83
2022/12/02 04:06:22;;;;;;;;;;;;;;;5.64;100.00;100063.72;6338457;22;19910;-83
2022/12/02 04:08:47;;;;;;;;;;;;;;;5.68;100.00;100064.53;6339608;22;19911;-83
2022/12/02 04:11:13;;;;;;;;;;;;;;;5.71;100.00;100058.34;6339480;22;19938;-83
2022/12/02 04:13:38;;;;;;;;;;;;;;;5.70;100.00;100059.25;6339490;22;20280;-83
2022/12/02 04:16:03;;;;;;;;;;;;;;;5.70;100.00;100051.38;6339550;22;19911;-83
2022/12/02 04:18:29;;;;;;;;;;;;;;;5.71;100.00;100047.81;6339564;22;19921;-83
2022/12/02 04:20:54;;;;;;;;;;;;;;;5.73;100.00;100051.31;6337850;22;19910;-83
2022/12/02 04:23:19;;;;;;;;;;;;;;;5.69;100.00;100047.84;6339436;22;19918;-82
2022/12/02 04:25:45;;;;;;;;;;;;;;;5.69;100.00;100039.97;6339221;22;20339;-83
2022/12/02 04:28:10;;;;;;;;;;;;;;;5.68;100.00;100025.09;6339404;22;19910;-82
2022/12/02 04:30:35;;;;;;;;;;;;;;;5.72;100.00;100026.75;6339378;22;19910;-83
2022/12/02 04:33:00;;;;;;;;;;;;;;;5.72;100.00;100032.03;6339399;22;19911;-83
2022/12/02 04:35:26;;;;;;;;;;;;;;;5.73;100.00;100028.50;6337792;22;20182;-82
2022/12/02 04:37:53;;;;;;;;;;;;;;;5.74;100.00;100029.38;6339176;22;19919;-83
2022/12/02 04:40:18;;;;;;;;;;;;;;;5.72;100.00;100026.75;6337824;22;19914;-84
2022/12/02 04:42:43;;;;;;;;;;;;;;;5.73;100.00;100020.63;6339146;22;19942;-82
2022/12/02 04:45:09;;;;;;;;;;;;;;;5.73;100.00;100028.50;6339724;22;19935;-84
2022/12/02 04:47:34;;;;;;;;;;;;;;;5.72;100.00;100018.03;6339331;22;19917;-82
2022/12/02 04:50:00;;;;;;;;;;;;;;;5.74;100.00;100017.06;6339264;22;20334;-82
2022/12/02 08:46:14;;;;;;;;;;;;;;;5.92;100.00;99938.72;6272143;22;19925;-81
2022/12/02 08:48:39;;;;;;;;;;;;;;;5.95;100.00;99938.66;6338148;22;19914;-82
2022/12/02 08:51:04;;;;;;;;;;;;;;;5.92;100.00;99934.34;6338990;22;19993;-83
2022/12/02 08:53:30;;;;;;;;;;;;;;;5.90;100.00;99937.88;6336888;22;20340;-86
2022/12/02 08:55:55;;;;;;;;;;;;;;;5.93;100.00;99930.78;6339802;22;19910;-82
2022/12/02 08:58:20;;;;;;;;;;;;;;;5.91;100.00;99929.97;6339330;22;19917;-84
2022/12/02 09:00:45;;;;;;;;;;;;;;;5.91;100.00;99935.22;6335830;22;20340;-83
2022/12/02 09:03:11;;;;;;;;;;;;;;;5.92;100.00;99936.06;6338156;22;19910;-82
2022/12/02 09:05:37;;;;;;;;;;;;;;;5.92;100.00;99933.44;6339185;22;19989;-82
2022/12/02 09:08:03;;;;;;;;;;;;;;;5.92;100.00;99930.81;6363927;22;19968;-81
2022/12/02 09:10:28;;;;;;;;;;;;;;;5.92;100.00;99930.81;6338723;22;20326;-81
2022/12/02 09:12:54;;;;;;;;;;;;;;;5.92;100.00;99926.44;6338664;22;19917;-82
2022/12/02 09:15:20;;;;;;;;;;;;;;;5.91;100.00;99932.59;6335424;22;19914;-83
2022/12/02 09:17:45;;;;;;;;;;;;;;;5.96;100.00;99921.97;6337571;22;19915;-80
2022/12/02 09:20:11;;;;;;;;;;;;;;;5.91;100.00;99919.44;6339178;22;19911;-82
2022/12/02 09:22:36;;;;;;;;;;;;;;;5.91;100.00;99924.69;6337549;22;19910;-81
2022/12/02 09:25:01;;;;;;;;;;;;;;;5.94;100.00;99923.78;6338485;22;19915;-81
2022/12/02 09:27:27;;;;;;;;;;;;;;;5.93;100.00;99928.16;6339299;22;19993;-86
2022/12/02 09:29:52;;;;;;;;;;;;;;;5.93;100.00;99922.91;6335613;22;19921;-81
2022/12/02 09:32:17;;;;;;;;;;;;;;;5.93;100.00;99925.53;6336989;22;20345;-81
2022/12/02 09:34:43;;;;;;;;;;;;;;;5.93;100.00;99922.91;6336617;22;19910;-81
2022/12/02 09:37:08;;;;;;;;;;;;;;;5.94;100.00;99922.00;6337561;22;19910;-82
2022/12/02 09:39:33;;;;;;;;;;;;;;;5.92;100.00;99926.44;6338411;22;19945;-83
2022/12/02 09:41:59;;;;;;;;;;;;;;;5.94;100.00;99924.63;6339199;22;20327;-83
2022/12/02 09:44:25;;;;;;;;;;;;;;;5.93;100.00;99924.66;6335868;22;19937;-81
2022/12/02 09:46:50;;;;;;;;;;;;;;;5.96;100.00;99922.88;6338982;22;19922;-82
2022/12/02 09:49:15;;;;;;;;;;;;;;;5.94;100.00;99919.38;6337822;22;19911;-82
2022/12/02 09:51:41;;;;;;;;;;;;;;;5.94;100.00;99919.38;6338767;22;20318;-86
2022/12/02 09:54:06;;;;;;;;;;;;;;;5.95;100.00;99918.50;6338812;22;19993;-81
2022/12/02 09:56:31;;;;;;;;;;;;;;;5.98;100.00;99920.19;6337451;22;20123;-81
2022/12/02 09:58:57;;;;;;;;;;;;;;;5.95;100.00;99915.84;6338749;22;20334;-81
2022/12/02 10:01:23;;;;;;;;;;;;;;;5.96;100.00;99916.72;6339277;22;19954;-81
2022/12/02 10:03:49;;;;;;;;;;;;;;;5.97;100.00;99918.50;6340667;22;19918;-82
2022/12/02 10:06:18;;;;;;;;;;;;;;;5.96;100.00;99916.72;6339098;22;19911;-84
2022/12/02 10:08:43;;;;;;;;;;;;;;;5.96;100.00;99916.72;6340565;22;19910;-82
2022/12/02 10:11:21;;;;;;;;;;;;;;;5.95;100.00;99910.59;6339953;22;19964;-83
2022/12/02 10:13:47;;;;;;;;;;;;;;;5.96;100.00;99911.44;6337939;22;19917;-83
2022/12/02 10:16:12;;;;;;;;;;;;;;;5.96;100.00;99912.34;6338326;22;20000;-81
2022/12/02 10:18:39;;;;;;;;;;;;;;;5.97;100.00;99913.22;6339458;22;19915;-83
2022/12/02 10:21:04;;;;;;;;;;;;;;;5.97;100.00;99913.22;6365223;22;20215;-82
2022/12/02 10:23:29;;;;;;;;;;;;;;;5.97;100.00;99903.56;6340435;22;19922;-82
2022/12/02 10:26:09;;;;;;;;;;;;;;;5.99;100.00;99909.66;6340519;22;19910;-84
2022/12/02 10:28:37;;;;;;;;;;;;;;;5.96;100.00;99906.19;6339565;22;19910;-84
2022/12/02 10:31:13;;;;;;;;;;;;;;;5.97;100.00;99900.94;6336746;22;19959;-82
2022/12/02 10:33:40;;;;;;;;;;;;;;;6.00;100.00;99906.13;6340415;22;19911;-85
2022/12/02 10:36:06;;;;;;;;;;;;;;;5.98;100.00;99900.03;6338878;22;19910;-83
2022/12/02 10:38:37;;;;;;;;;;;;;;;6.00;100.00;99906.13;6365316;22;19919;-87
2022/12/02 10:41:14;;;;;;;;;;;;;;;6.02;100.00;99899.97;6339816;22;19942;-82
2022/12/02 10:43:49;;;;;;;;;;;;;;;5.98;100.00;99894.78;6365259;22;19910;-83
2022/12/02 10:46:17;;;;;;;;;;;;;;;6.02;100.00;99890.31;6338428;22;20211;-83
2022/12/02 10:48:42;;;;;;;;;;;;;;;6.03;100.00;99893.78;6340748;22;20423;-86
2022/12/02 10:51:13;;;;;;;;;;;;;;;5.97;100.00;99890.41;6343517;22;20438;-87
2022/12/02 10:53:38;;;;;;;;;;;;;;;6.00;100.00;99881.59;6339250;22;19956;-92
2022/12/02 10:56:03;;;;;;;;;;;;;;;6.02;100.00;99884.19;6338642;22;20264;-83
2022/12/02 10:58:29;;;;;;;;;;;;;;;5.99;100.00;99885.97;6340491;22;19932;-84
2022/12/02 11:00:58;;;;;;;;;;;;;;;6.05;100.00;99879.72;6362744;22;20272;-84
2022/12/02 11:03:24;;;;;;;;;;;;;;;6.00;100.00;99877.19;6340078;22;20280;-82
2022/12/02 11:05:49;;;;;;;;;;;;;;;6.02;100.00;99873.69;6340382;22;19994;-83
2022/12/02 11:08:15;;;;;;;;;;;;;;;6.04;100.00;99871.88;6364873;22;19911;-84
2022/12/02 11:10:41;;;;;;;;;;;;;;;6.05;100.00;99870.94;6339652;22;19910;-83
2022/12/02 11:13:12;;;;;;;;;;;;;;;6.04;100.00;99861.34;6340223;22;19911;-88
2022/12/02 11:15:37;;;;;;;;;;;;;;;6.04;100.00;99859.56;6338144;22;19915;-85
2022/12/02 11:18:04;;;;;;;;;;;;;;;6.01;100.00;99851.75;6336281;22;20215;-83
2022/12/02 11:20:29;;;;;;;;;;;;;;;6.04;100.00;99861.34;6338727;22;19964;-84
2022/12/02 11:22:58;;;;;;;;;;;;;;;6.03;100.00;99851.72;6337953;22;19914;-87
2022/12/02 11:25:55;;;;;;;;;;;;;;;6.06;100.00;99854.28;6337761;22;19911;-83
2022/12/02 11:28:21;;;;;;;;;;;;;;;6.07;100.00;99850.75;6286673;22;19934;-86
2022/12/02 11:30:46;;;;;;;;;;;;;;;6.07;100.00;99850.75;6335785;22;19910;-84
2022/12/02 11:33:22;;;;;;;;;;;;;;;6.06;100.00;99854.28;6339955;22;19910;-83
2022/12/02 11:36:22;;;;;;;;;;;;;;;6.07;100.00;99850.75;6337480;22;20211;-85
2022/12/02 11:38:48;;;;;;;;;;;;;;;6.05;100.00;99837.63;6244266;23;20351;-84
2022/12/02 11:41:13;;;;;;;;;;;;;;;6.07;100.00;99833.19;6319961;22;19948;-83
2022/12/02 11:43:39;;;;;;;;;;;;;;;6.07;100.00;99830.56;6339345;22;19917;-84
2022/12/02 11:46:10;;;;;;;;;;;;;;;6.07;100.00;99830.56;6338739;22;19911;-83
2022/12/02 11:48:45;;;;;;;;;;;;;;;6.08;100.00;99823.53;6339787;22;20245;-84
2022/12/02 11:51:30;;;;;;;;;;;;;;;6.07;100.00;99820.03;6364048;22;20365;-84
2022/12/02 11:54:03;;;;;;;;;;;;;;;6.08;100.00;99818.25;6339574;22;19910;-86
2022/12/02 11:56:32;;;;;;;;;;;;;;;6.09;100.00;99812.97;6364500;22;19911;-88
2022/12/02 11:58:58;;;;;;;;;;;;;;;6.10;100.00;99804.19;6339433;22;19985;-86
2022/12/02 12:01:23;;;;;;;;;;;;;;;6.09;100.00;99807.69;6338055;22;19942;-84
2022/12/02 12:03:50;;;;;;;;;;;;;;;6.10;100.00;99803.31;6339232;22;19911;-85
2022/12/02 12:06:17;;;;;;;;;;;;;;;6.09;100.00;99802.44;6339668;22;19911;-85
2022/12/02 12:08:49;;;;;;;;;;;;;;;6.08;100.00;99800.72;6339724;22;19915;-83
2022/12/02 12:11:20;;;;;;;;;;;;;;;6.09;100.00;99801.59;6339674;22;20308;-86
2022/12/02 12:14:00;;;;;;;;;;;;;;;6.10;100.00;99798.06;6339130;22;19911;-85
2022/12/02 12:16:26;;;;;;;;;;;;;;;6.14;100.00;99794.44;6338130;22;19932;-89
2022/12/02 12:18:52;;;;;;;;;;;;;;;6.13;100.00;99792.72;6339766;22;19914;-84
2022/12/02 12:21:31;;;;;;;;;;;;;;;6.14;100.00;99790.06;6339128;22;19925;-90
2022/12/02 12:24:22;;;;;;;;;;;;;;;6.11;100.00;99790.13;6339591;22;20314;-86
2022/12/02 12:26:47;;;;;;;;;;;;;;;6.11;100.00;99784.00;6339961;22;19989;-84
2022/12/02 12:29:12;;;;;;;;;;;;;;;6.12;100.00;99777.84;6338875;22;19987;-87
2022/12/02 12:31:38;;;;;;;;;;;;;;;6.11;100.00;99778.72;6338897;22;20329;-84
2022/12/02 12:34:03;;;;;;;;;;;;;;;6.11;100.00;99776.09;6337594;22;20314;-85
2022/12/02 12:36:36;;;;;;;;;;;;;;;6.14;100.00;99774.28;6339645;22;20444;-92
2022/12/02 12:39:02;;;;;;;;;;;;;;;6.13;100.00;99769.06;6364018;22;19994;-86
2022/12/02 12:41:27;;;;;;;;;;;;;;;6.12;100.00;99764.69;6364800;22;19907;-85
2022/12/02 12:43:53;;;;;;;;;;;;;;;6.10;100.00;99763.88;6339693;22;19921;-84
2022/12/02 12:46:18;;;;;;;;;;;;;;;6.13;100.00;99761.16;6339370;22;19924;-84
2022/12/02 12:48:43;;;;;;;;;;;;;;;6.13;100.00;99762.00;6337639;22;19914;-87
2022/12/02 12:51:09;;;;;;;;;;;;;;;6.17;100.00;99753.16;6339319;22;19956;-85
2022/12/02 12:53:35;;;;;;;;;;;;;;;6.14;100.00;99752.34;6339286;22;19997;-84
2022/12/02 12:56:00;;;;;;;;;;;;;;;6.11;100.00;99752.41;6364033;22;19917;-83
2022/12/02 12:58:25;;;;;;;;;;;;;;;6.13;100.00;99740.97;6339031;22;19914;-85
2022/12/02 13:00:51;;;;;;;;;;;;;;;6.16;100.00;99737.41;6337730;22;19910;-85
2022/12/02 13:03:16;;;;;;;;;;;;;;;6.17;100.00;99744.38;6338395;22;19941;-88
2022/12/02 13:05:41;;;;;;;;;;;;;;;6.14;100.00;99741.81;6341081;22;19925;-87
2022/12/02 13:08:06;;;;;;;;;;;;;;;6.14;100.00;99741.81;6339472;22;19914;-83
2022/12/02 13:10:32;;;;;;;;;;;;;;;6.15;100.00;99733.03;6336718;22;19914;-87
2022/12/02 13:12:57;;;;;;;;;;;;;;;6.16;100.00;99732.16;6339158;22;19938;-84
2022/12/02 13:15:22;;;;;;;;;;;;;;;6.16;100.00;99729.50;6337568;22;19918;-84
2022/12/02 13:17:48;;;;;;;;;;;;;;;6.17;100.00;99728.59;6336970;22;19910;-87
2022/12/02 13:20:13;;;;;;;;;;;;;;;6.18;100.00;99725.91;6337064;22;20296;-88
2022/12/02 13:22:39;;;;;;;;;;;;;;;6.16;100.00;99727.75;6338826;22;19910;-87
2022/12/02 13:25:04;;;;;;;;;;;;;;;6.16;100.00;99733.00;6339333;22;20211;-84
2022/12/02 13:27:29;;;;;;;;;;;;;;;6.14;100.00;99734.81;6338526;22;19918;-84
2022/12/02 13:29:55;;;;;;;;;;;;;;;6.18;100.00;99725.91;6338287;22;19910;-87
2022/12/02 13:32:20;;;;;;;;;;;;;;;6.17;100.00;99732.09;6338121;22;19910;-83
2022/12/02 13:34:45;;;;;;;;;;;;;;;6.20;100.00;99728.50;6338162;22;19910;-84
2022/12/02 13:37:10;;;;;;;;;;;;;;;6.17;100.00;99732.09;6338907;22;19945;-83
2022/12/02 13:39:36;;;;;;;;;;;;;;;6.18;100.00;99728.56;6337083;22;20246;-84
2022/12/02 13:42:01;;;;;;;;;;;;;;;6.19;100.00;99721.53;6339020;22;20219;-86
2022/12/02 13:44:26;;;;;;;;;;;;;;;6.21;100.00;99726.75;6337370;22;19993;-83
2022/12/02 13:46:52;;;;;;;;;;;;;;;6.19;100.00;99721.53;6336961;22;20270;-85
2022/12/02 13:49:22;;;;;;;;;;;;;;;6.17;100.00;99720.69;6338787;22;19911;-87
2022/12/02 13:51:47;;;;;;;;;;;;;;;6.17;100.00;99724.22;6338809;22;19911;-87
2022/12/02 13:54:12;;;;;;;;;;;;;;;6.20;100.00;99722.41;6339019;22;19975;-87
2022/12/02 13:56:40;;;;;;;;;;;;;;;6.20;100.00;99722.41;6339321;22;19949;-89
2022/12/02 13:59:05;;;;;;;;;;;;;;;6.18;100.00;99728.56;6338861;22;19910;-88
2022/12/02 14:01:31;;;;;;;;;;;;;;;6.18;100.00;99725.06;6336725;22;19963;-83
2022/12/02 14:03:56;;;;;;;;;;;;;;;6.21;100.00;99726.75;6339158;22;20314;-83
2022/12/02 14:06:21;;;;;;;;;;;;;;;6.19;100.00;99724.19;6338789;22;20336;-87
2022/12/02 14:08:46;;;;;;;;;;;;;;;6.19;100.00;99726.81;6338285;22;19910;-85
2022/12/02 14:11:12;;;;;;;;;;;;;;;6.18;100.00;99725.06;6338893;22;19915;-86
2022/12/02 14:13:42;;;;;;;;;;;;;;;6.21;100.00;99724.09;6338398;22;19910;-84
2022/12/02 14:16:07;;;;;;;;;;;;;;;6.21;100.00;99725.00;6337433;22;19934;-85
2022/12/02 14:18:32;;;;;;;;;;;;;;;6.18;100.00;99722.44;6338803;22;20239;-82
2022/12/02 14:20:58;;;;;;;;;;;;;;;6.18;100.00;99714.53;6338763;22;20318;-83
2022/12/02 14:23:23;;;;;;;;;;;;;;;6.21;100.00;99722.34;6338283;22;19953;-82
2022/12/02 14:25:48;;;;;;;;;;;;;;;6.20;100.00;99720.63;6338801;22;20249;-83
2022/12/02 14:28:14;;;;;;;;;;;;;;;6.20;100.00;99720.63;6338180;22;19933;-83
2022/12/02 14:30:39;;;;;;;;;;;;;;;6.21;100.00;99725.00;6337063;22;19910;-83
2022/12/02 14:33:04;;;;;;;;;;;;;;;6.20;100.00;99719.75;6338211;22;19998;-83
2022/12/02 14:35:29;;;;;;;;;;;;;;;6.18;100.00;99725.06;6339044;22;19914;-83
2022/12/02 14:37:55;;;;;;;;;;;;;;;6.21;100.00;99726.75;6339212;22;20426;-84
2022/12/02 14:40:20;;;;;;;;;;;;;;;6.19;100.00;99724.19;6336132;22;19917;-83
2022/12/02 14:42:45;;;;;;;;;;;;;;;6.19;100.00;99726.81;6338119;22;19989;-84
2022/12/02 14:45:11;;;;;;;;;;;;;;;6.24;100.00;99732.81;6338160;22;19911;-84
2022/12/02 14:47:36;;;;;;;;;;;;;;;6.22;100.00;99725.84;6339186;22;19998;-84
2022/12/02 14:50:01;;;;;;;;;;;;;;;6.23;100.00;99736.31;6338778;22;19910;-82
2022/12/02 14:52:26;;;;;;;;;;;;;;;6.19;100.00;99729.44;6339279;22;19914;-84
2022/12/02 14:54:52;;;;;;;;;;;;;;;6.23;100.00;99731.06;6339548;22;20389;-83
2022/12/02 14:57:17;;;;;;;;;;;;;;;6.23;100.00;99731.06;6338822;22;19957;-83
2022/12/02 14:59:43;;;;;;;;;;;;;;;6.23;100.00;99728.44;6337430;22;19949;-92
2022/12/02 15:02:08;;;;;;;;;;;;;;;6.25;100.00;99731.88;6343323;22;19911;-84
2022/12/02 15:05:07;;;;;;;;;;;;;;;;;;;;;
2022/12/02 15:07:32;;;;;;;;;;;;;;;6.26;100.00;99727.50;6341285;22;19989;-83
2022/12/02 15:09:59;;;;;;;;;;;;;;;6.25;100.00;99729.25;6338166;22;19950;-87
2022/12/02 15:12:24;;;;;;;;;;;;;;;6.25;100.00;99723.13;6338841;22;20276;-85
2022/12/02 15:14:50;;;;;;;;;;;;;;;6.25;100.00;99731.88;6337966;22;19933;-83
2022/12/02 15:17:15;;;;;;;;;;;;;;;6.26;100.00;99731.00;6339030;22;19993;-85
2022/12/02 15:19:40;;;;;;;;;;;;;;;6.25;100.00;99734.50;6339342;22;19918;-83
2022/12/02 15:22:07;;;;;;;;;;;;;;;6.28;100.00;99739.69;6339742;22;19911;-85
2022/12/02 15:24:33;;;;;;;;;;;;;;;6.25;100.00;99731.88;6337743;22;19921;-83
2022/12/02 15:27:00;;;;;;;;;;;;;;;6.24;100.00;99737.19;6339541;22;19938;-82
2022/12/02 15:29:25;;;;;;;;;;;;;;;6.22;100.00;99739.00;6338240;22;19971;-82
2022/12/02 15:31:50;;;;;;;;;;;;;;;6.23;100.00;99738.97;6338919;22;19911;-84
2022/12/02 15:34:16;;;;;;;;;;;;;;;6.25;100.00;99739.78;6310663;22;19939;-82
2022/12/02 15:36:41;;;;;;;;;;;;;;;6.24;100.00;99737.19;6308110;22;19918;-83
2022/12/02 15:39:09;;;;;;;;;;;;;;;6.24;100.00;99742.44;6307242;22;19934;-86
2022/12/02 15:41:34;;;;;;;;;;;;;;;6.26;100.00;99741.50;6307554;22;19937;-83
2022/12/02 15:44:01;;;;;;;;;;;;;;;6.26;100.00;99738.88;6308039;22;19915;-90
2022/12/02 15:46:27;;;;;;;;;;;;;;;6.24;100.00;99743.34;6304061;22;19915;-84
2022/12/02 15:48:52;;;;;;;;;;;;;;;6.24;100.00;99737.19;6307315;22;19915;-86
2022/12/02 15:51:17;;;;;;;;;;;;;;;6.25;100.00;99744.19;6306779;22;19911;-83
2022/12/02 15:53:45;;;;;;;;;;;;;;;6.26;100.00;99748.56;6307412;22;19968;-84
2022/12/02 15:56:13;;;;;;;;;;;;;;;6.26;100.00;99752.03;6306925;22;19994;-88
2022/12/02 16:01:44;;;;;;;;;;;;;;;6.24;100.00;99747.72;6266834;22;19939;-83
2022/12/02 16:04:10;;;;;;;;;;;;;;;6.27;100.00;99752.91;6307406;22;20336;-83
2022/12/02 16:06:35;;;;;;;;;;;;;;;6.26;100.00;99751.19;6307874;22;20000;-83
2022/12/02 16:09:00;;;;;;;;;;;;;;;6.25;100.00;99755.56;6307991;22;19911;-82
2022/12/02 16:11:25;;;;;;;;;;;;;;;6.25;100.00;99750.31;6307355;22;19911;-83
2022/12/02 16:13:51;;;;;;;;;;;;;;;6.28;100.00;99758.13;6307042;22;19990;-83
2022/12/02 16:16:16;;;;;;;;;;;;;;;6.30;100.00;99752.81;6305579;22;19911;-84
2022/12/02 16:18:42;;;;;;;;;;;;;;;6.25;100.00;99752.94;6331715;22;19919;-83
2022/12/02 16:21:09;;;;;;;;;;;;;;;6.24;100.00;99759.13;6331562;22;19911;-83
2022/12/02 16:23:35;;;;;;;;;;;;;;;6.25;100.00;99758.19;6307261;22;19911;-83
2022/12/02 16:26:03;;;;;;;;;;;;;;;6.25;100.00;99758.19;6305556;22;20028;-83
2022/12/02 16:28:41;;;;;;;;;;;;;;;;;;;;;
2022/12/02 16:31:15;;;;;;;;;;;;;;;6.26;100.00;99764.34;6306456;22;19997;-87
2022/12/02 16:34:48;;;;;;;;;;;;;;;6.26;100.00;99762.56;6306806;22;19977;-87
2022/12/02 16:37:18;;;;;;;;;;;;;;;6.25;100.00;99765.22;6209269;22;19911;-88
2022/12/02 16:39:46;;;;;;;;;;;;;;;6.29;100.00;99761.63;6122681;23;19921;-88
2022/12/02 16:42:11;;;;;;;;;;;;;;;6.27;100.00;99766.06;6203811;23;19916;-83
2022/12/02 16:44:39;;;;;;;;;;;;;;;6.24;100.00;99769.66;6210724;23;19943;-83
2022/12/02 16:47:22;;;;;;;;;;;;;;;6.26;100.00;99773.09;6236178;22;19930;-85
2022/12/02 16:49:48;;;;;;;;;;;;;;;6.26;100.00;99764.34;6306799;22;19964;-84
2022/12/02 16:52:33;;;;;;;;;;;;;;;6.25;100.00;99760.81;6305045;22;19911;-85
2022/12/02 16:55:08;;;;;;;;;;;;;;;6.25;100.00;99758.19;6305223;22;19965;-85
2022/12/02 16:57:57;;;;;;;;;;;;;;;6.26;100.00;99766.97;6304802;22;19918;-84
2022/12/02 17:00:22;;;;;;;;;;;;;;;6.26;100.00;99766.97;6305177;22;19953;-83
2022/12/02 17:02:57;;;;;;;;;;;;;;;6.24;100.00;99769.66;6305556;22;19911;-85
2022/12/02 17:05:22;;;;;;;;;;;;;;;6.27;100.00;99763.41;6303814;22;20279;-83
2022/12/02 17:07:49;;;;;;;;;;;;;;;6.27;100.00;99758.16;6306587;22;20009;-83
2022/12/02 17:10:17;;;;;;;;;;;;;;;6.25;100.00;99766.09;6306367;22;19910;-85
2022/12/02 17:12:42;;;;;;;;;;;;;;;6.28;100.00;99770.41;6305993;22;19975;-82
2022/12/02 17:15:13;;;;;;;;;;;;;;;6.25;100.00;99771.34;6304377;22;19911;-83
2022/12/02 17:17:43;;;;;;;;;;;;;;;6.25;100.00;99770.50;6306181;22;19911;-87
2022/12/02 17:20:09;;;;;;;;;;;;;;;6.29;100.00;99772.16;6306090;22;19956;-82
2022/12/02 17:22:43;;;;;;;;;;;;;;;6.28;100.00;99771.28;6306296;22;19964;-87
2022/12/02 17:25:12;;;;;;;;;;;;;;;6.27;100.00;99780.09;6305948;22;19918;-84
2022/12/02 17:27:38;;;;;;;;;;;;;;;6.29;100.00;99770.38;6304348;22;19957;-86
2022/12/02 17:30:04;;;;;;;;;;;;;;;6.25;100.00;99778.41;6304188;22;19990;-84
2022/12/02 17:32:30;;;;;;;;;;;;;;;6.27;100.00;99773.94;6306648;22;19911;-86
2022/12/02 17:34:55;;;;;;;;;;;;;;;6.28;100.00;99781.81;6305338;22;20238;-85
2022/12/02 17:37:20;;;;;;;;;;;;;;;6.29;100.00;99777.44;6306051;22;19915;-85
2022/12/02 17:39:45;;;;;;;;;;;;;;;6.28;100.00;99776.53;6306158;22;19915;-86
2022/12/02 17:42:11;;;;;;;;;;;;;;;6.27;100.00;99768.69;6307046;22;19911;-84
2022/12/02 17:44:36;;;;;;;;;;;;;;;6.32;100.00;99775.56;6305022;22;19911;-86
2022/12/02 17:47:01;;;;;;;;;;;;;;;6.28;100.00;99771.28;6305561;22;20400;-82
2022/12/02 17:49:27;;;;;;;;;;;;;;;6.35;100.00;99775.50;6306175;22;19911;-85
2022/12/02 17:51:52;;;;;;;;;;;;;;;6.31;100.00;99771.19;6306378;22;20238;-84
2022/12/02 17:54:17;;;;;;;;;;;;;;;6.29;100.00;99769.53;6304409;22;19934;-87
2022/12/02 17:56:43;;;;;;;;;;;;;;;6.28;100.00;99766.00;6306658;22;19972;-85
2022/12/02 17:59:08;;;;;;;;;;;;;;;6.30;100.00;99771.25;6305629;22;19996;-82
2022/12/02 18:01:33;;;;;;;;;;;;;;;6.27;100.00;99773.94;6304509;22;20251;-87
2022/12/02 18:03:58;;;;;;;;;;;;;;;6.29;100.00;99775.66;6305622;22;19915;-83
2022/12/02 18:06:24;;;;;;;;;;;;;;;6.31;100.00;99768.56;6305709;22;19915;-82
2022/12/02 18:08:49;;;;;;;;;;;;;;;6.28;100.00;99773.91;6304732;22;19911;-83
2022/12/02 18:11:16;;;;;;;;;;;;;;;6.28;100.00;99781.81;6305843;22;20072;-85
2022/12/02 18:13:43;;;;;;;;;;;;;;;6.28;100.00;99773.91;6306519;22;19911;-86
2022/12/02 18:16:08;;;;;;;;;;;;;;;6.31;100.00;99772.97;6304734;22;19957;-85
2022/12/02 18:18:34;;;;;;;;;;;;;;;6.28;100.00;99771.28;6305977;22;19911;-84
2022/12/02 18:20:59;;;;;;;;;;;;;;;6.27;100.00;99773.94;6307534;22;19957;-84
2022/12/02 18:23:24;;;;;;;;;;;;;;;6.29;100.00;99783.53;6308404;22;20242;-87
2022/12/02 18:25:50;;;;;;;;;;;;;;;6.31;100.00;99775.59;6308059;22;19911;-87
2022/12/02 18:28:15;;;;;;;;;;;;;;;6.28;100.00;99784.44;6332176;22;19911;-87
2022/12/02 18:30:41;;;;;;;;;;;;;;;6.27;100.00;99785.34;6305887;22;19990;-85